createdAt,value
2018-02-09T00:01:12.972Z,-2.90
2018-02-09T00:03:40.714Z,-2.90
2018-02-09T00:06:08.276Z,-3.00
2018-02-09T00:08:35.976Z,-3.10
2018-02-09T00:11:03.566Z,-3.10
2018-02-09T00:13:31.206Z,-3.20
2018-02-09T00:15:59.737Z,-3.30
2018-02-09T00:18:27.321Z,-3.30
2018-02-09T00:20:54.908Z,-3.30
2018-02-09T00:23:23.233Z,-3.30
2018-02-09T00:25:50.982Z,-3.30
2018-02-09T00:28:18.551Z,-3.30
2018-02-09T00:30:46.121Z,-3.20
2018-02-09T00:33:13.695Z,-3.20
2018-02-09T00:35:41.325Z,-3.10
2018-02-09T00:38:08.873Z,-3.10
2018-02-09T00:40:36.453Z,-3.10
2018-02-09T00:43:04.114Z,-3.10
2018-02-09T00:45:31.663Z,-3.00
2018-02-09T00:47:59.277Z,-3.10
2018-02-09T00:50:26.828Z,-3.10
2018-02-09T00:52:54.389Z,-3.10
2018-02-09T00:55:22.054Z,-3.20
2018-02-09T00:57:49.628Z,-3.20
2018-02-09T01:00:17.181Z,-3.40
2018-02-09T01:02:44.753Z,-3.30
2018-02-09T01:05:12.358Z,-3.30
2018-02-09T01:07:39.901Z,-3.20
2018-02-09T01:10:08.241Z,-3.10
2018-02-09T01:12:35.806Z,-3.20
2018-02-09T01:15:03.386Z,-3.20
2018-02-09T01:17:31.713Z,-3.20
2018-02-09T01:19:59.410Z,-3.20
2018-02-09T01:22:26.982Z,-3.20
2018-02-09T01:24:54.536Z,-3.30
2018-02-09T01:27:22.109Z,-3.40
2018-02-09T01:29:50.451Z,-3.40
2018-02-09T01:32:18.165Z,-3.40
2018-02-09T01:34:46.525Z,-3.50
2018-02-09T01:37:14.882Z,-3.50
2018-02-09T01:39:42.461Z,-3.50
2018-02-09T01:42:10.040Z,-3.50
2018-02-09T01:44:38.464Z,-3.40
2018-02-09T01:47:06.058Z,-3.40
2018-02-09T01:49:33.619Z,-3.40
2018-02-09T01:52:01.169Z,-3.40
2018-02-09T01:54:28.726Z,-3.40
2018-02-09T01:56:56.296Z,-3.40
2018-02-09T01:59:24.074Z,-3.30
2018-02-09T02:01:51.630Z,-3.40
2018-02-09T02:04:19.218Z,-3.40
2018-02-09T02:06:46.795Z,-3.50
2018-02-09T02:09:14.385Z,-3.50
2018-02-09T02:11:42.028Z,-3.50
2018-02-09T02:14:09.573Z,-3.50
2018-02-09T02:16:37.214Z,-3.50
2018-02-09T02:19:05.640Z,-3.50
2018-02-09T02:21:33.396Z,-3.50
2018-02-09T02:24:00.953Z,-3.50
2018-02-09T02:26:28.531Z,-3.50
2018-02-09T02:28:56.097Z,-3.50
2018-02-09T02:31:23.706Z,-3.60
2018-02-09T02:33:52.115Z,-3.70
2018-02-09T02:36:19.783Z,-3.70
2018-02-09T02:38:47.366Z,-3.70
2018-02-09T02:41:14.951Z,-3.70
2018-02-09T02:43:42.497Z,-3.70
2018-02-09T02:46:10.075Z,-3.60
2018-02-09T02:48:37.634Z,-3.50
2018-02-09T02:51:05.443Z,-3.50
2018-02-09T02:53:33.012Z,-3.50
2018-02-09T02:56:00.580Z,-3.50
2018-02-09T02:58:28.164Z,-3.60
2018-02-09T03:00:55.872Z,-3.60
2018-02-09T03:03:23.432Z,-3.60
2018-02-09T03:05:51.063Z,-3.60
2018-02-09T03:08:19.450Z,-3.60
2018-02-09T03:10:47.770Z,-3.60
2018-02-09T03:13:15.942Z,-3.60
2018-02-09T03:15:43.513Z,-3.60
2018-02-09T03:18:11.198Z,-3.60
2018-02-09T03:20:38.757Z,-3.50
2018-02-09T03:23:06.329Z,-3.60
2018-02-09T03:25:33.913Z,-3.70
2018-02-09T03:28:02.480Z,-3.60
2018-02-09T03:30:30.849Z,-3.60
2018-02-09T03:32:58.407Z,-3.60
2018-02-09T03:35:26.114Z,-3.60
2018-02-09T03:37:54.481Z,-3.60
2018-02-09T03:40:22.812Z,-3.60
2018-02-09T03:42:50.422Z,-3.60
2018-02-09T03:45:18.762Z,-3.60
2018-02-09T03:47:46.329Z,-3.60
2018-02-09T03:50:13.914Z,-3.60
2018-02-09T03:52:42.389Z,-3.60
2018-02-09T03:55:09.950Z,-3.60
2018-02-09T03:57:38.289Z,-3.70
2018-02-09T04:00:05.842Z,-3.70
2018-02-09T04:02:33.448Z,-3.70
2018-02-09T04:05:01.020Z,-3.80
2018-02-09T04:07:29.566Z,-4.00
2018-02-09T04:09:57.117Z,-4.00
2018-02-09T04:12:24.713Z,-4.00
2018-02-09T04:14:52.271Z,-3.90
2018-02-09T04:17:20.602Z,-3.90
2018-02-09T04:19:48.157Z,-3.90
2018-02-09T04:22:15.822Z,-3.80
2018-02-09T04:24:44.301Z,-3.90
2018-02-09T04:27:11.859Z,-4.00
2018-02-09T04:29:39.437Z,-3.90
2018-02-09T04:32:07.002Z,-4.00
2018-02-09T04:34:34.560Z,-4.00
2018-02-09T04:37:02.159Z,-4.00
2018-02-09T04:39:29.721Z,-4.00
2018-02-09T04:41:57.270Z,-4.00
2018-02-09T04:44:24.865Z,-4.00
2018-02-09T04:46:52.416Z,-4.00
2018-02-09T04:49:20.833Z,-4.00
2018-02-09T04:51:48.393Z,-4.00
2018-02-09T04:54:15.960Z,-4.00
2018-02-09T04:56:43.518Z,-4.00
2018-02-09T04:59:11.081Z,-3.90
2018-02-09T05:01:38.860Z,-3.90
2018-02-09T05:04:06.448Z,-3.90
2018-02-09T05:06:34.118Z,-3.90
2018-02-09T05:09:01.674Z,-4.00
2018-02-09T05:11:29.248Z,-4.00
2018-02-09T05:13:57.566Z,-4.00
2018-02-09T05:16:29.594Z,-4.00
2018-02-09T05:18:57.925Z,-4.10
2018-02-09T05:21:25.585Z,-4.10
2018-02-09T05:23:53.260Z,-4.10
2018-02-09T05:26:20.838Z,-4.10
2018-02-09T05:28:48.413Z,-4.10
2018-02-09T05:31:16.775Z,-4.00
2018-02-09T05:33:44.363Z,-4.00
2018-02-09T05:36:12.697Z,-4.00
2018-02-09T05:38:40.246Z,-4.00
2018-02-09T05:41:07.863Z,-3.90
2018-02-09T05:43:36.349Z,-4.00
2018-02-09T05:46:04.684Z,-4.00
2018-02-09T05:48:32.360Z,-4.00
2018-02-09T05:51:00.014Z,-4.00
2018-02-09T05:53:27.564Z,-4.00
2018-02-09T05:55:55.160Z,-4.00
2018-02-09T05:58:23.529Z,-4.00
2018-02-09T06:00:51.237Z,-4.10
2018-02-09T06:03:18.954Z,-4.00
2018-02-09T06:05:46.562Z,-4.00
2018-02-09T06:08:14.159Z,-4.00
2018-02-09T06:10:41.885Z,-4.00
2018-02-09T06:13:09.594Z,-4.00
2018-02-09T06:15:37.294Z,-4.00
2018-02-09T06:18:05.080Z,-4.00
2018-02-09T06:20:32.672Z,-4.00
2018-02-09T06:23:00.245Z,-4.00
2018-02-09T06:25:28.019Z,-4.00
2018-02-09T06:27:56.731Z,-4.00
2018-02-09T06:30:25.288Z,-4.00
2018-02-09T06:32:52.860Z,-4.00
2018-02-09T06:35:20.446Z,-3.90
2018-02-09T06:37:47.986Z,-4.00
2018-02-09T06:40:16.472Z,-4.00
2018-02-09T06:42:45.069Z,-4.00
2018-02-09T06:45:12.698Z,-4.00
2018-02-09T06:47:40.252Z,-4.00
2018-02-09T06:50:07.832Z,-4.00
2018-02-09T06:52:36.207Z,-4.00
2018-02-09T06:55:04.294Z,-4.00
2018-02-09T06:57:32.011Z,-4.00
2018-02-09T06:59:59.605Z,-3.90
2018-02-09T07:02:27.426Z,-3.90
2018-02-09T07:04:55.147Z,-3.90
2018-02-09T07:07:24.000Z,-4.00
2018-02-09T07:09:51.748Z,-3.90
2018-02-09T07:12:19.394Z,-3.80
2018-02-09T07:14:46.955Z,-3.80
2018-02-09T07:17:14.669Z,-3.80
2018-02-09T07:19:43.036Z,-3.70
2018-02-09T07:22:10.592Z,-3.70
2018-02-09T07:24:38.157Z,-3.70
2018-02-09T07:27:05.733Z,-3.70
2018-02-09T07:29:33.479Z,-3.60
2018-02-09T07:32:01.122Z,-3.60
2018-02-09T07:34:28.735Z,-3.60
2018-02-09T07:36:56.314Z,-3.50
2018-02-09T07:39:23.931Z,-3.50
2018-02-09T07:41:51.485Z,-3.40
2018-02-09T07:44:19.053Z,-3.40
2018-02-09T07:46:46.787Z,-3.30
2018-02-09T07:49:25.072Z,-3.20
2018-02-09T07:51:53.381Z,-3.10
2018-02-09T07:54:20.941Z,-3.10
2018-02-09T07:56:48.555Z,-3.10
2018-02-09T07:59:16.937Z,-3.00
2018-02-09T08:01:45.394Z,-2.90
2018-02-09T08:04:14.059Z,-2.90
2018-02-09T08:06:41.624Z,-2.80
2018-02-09T08:09:09.291Z,-2.80
2018-02-09T08:11:36.887Z,-2.70
2018-02-09T08:14:05.205Z,-2.70
2018-02-09T08:16:32.832Z,-2.70
2018-02-09T08:19:01.259Z,-2.50
2018-02-09T08:21:28.831Z,-2.50
2018-02-09T08:23:56.416Z,-2.40
2018-02-09T08:26:23.983Z,-2.30
2018-02-09T08:28:51.774Z,-2.30
2018-02-09T08:31:19.413Z,-2.30
2018-02-09T08:33:47.797Z,-2.20
2018-02-09T08:36:15.378Z,-2.30
2018-02-09T08:38:42.990Z,-2.20
2018-02-09T08:41:10.727Z,-2.20
2018-02-09T08:43:38.306Z,-2.20
2018-02-09T08:46:05.985Z,-2.20
2018-02-09T08:48:34.364Z,-2.10
2018-02-09T08:51:02.062Z,-2.10
2018-02-09T08:53:30.418Z,-1.90
2018-02-09T08:55:58.991Z,-1.70
2018-02-09T08:58:26.579Z,-1.70
2018-02-09T09:00:55.092Z,-1.50
2018-02-09T09:03:22.671Z,-1.50
2018-02-09T09:05:50.258Z,-1.50
2018-02-09T09:08:17.861Z,-1.40
2018-02-09T09:10:45.435Z,-1.30
2018-02-09T09:13:13.015Z,-1.30
2018-02-09T09:15:40.661Z,-1.40
2018-02-09T09:18:08.270Z,-1.40
2018-02-09T09:20:35.823Z,-1.30
2018-02-09T09:23:03.444Z,-1.10
2018-02-09T09:25:31.061Z,-0.90
2018-02-09T09:27:58.612Z,-0.50
2018-02-09T09:30:26.291Z,-0.20
2018-02-09T09:32:54.709Z,-0.10
2018-02-09T09:35:22.322Z,-0.10
2018-02-09T09:37:49.918Z,-0.10
2018-02-09T09:40:17.500Z,0.30
2018-02-09T09:42:45.067Z,0.40
2018-02-09T09:45:12.640Z,0.50
2018-02-09T09:47:40.221Z,0.60
2018-02-09T09:50:07.818Z,1.50
2018-02-09T09:52:35.388Z,2.30
2018-02-09T09:55:03.037Z,3.50
2018-02-09T09:57:30.737Z,4.10
2018-02-09T09:59:59.122Z,4.20
2018-02-09T10:02:39.675Z,4.10
2018-02-09T10:05:08.143Z,3.10
2018-02-09T10:07:35.715Z,3.10
2018-02-09T10:10:04.041Z,3.10
2018-02-09T10:12:31.605Z,3.00
2018-02-09T10:14:59.158Z,3.00
2018-02-09T10:17:26.962Z,3.20
2018-02-09T10:19:54.825Z,3.70
2018-02-09T10:22:22.394Z,3.60
2018-02-09T10:24:50.782Z,4.20
2018-02-09T10:27:18.957Z,4.20
2018-02-09T10:29:46.618Z,5.00
2018-02-09T10:32:14.197Z,5.30
2018-02-09T10:34:41.753Z,5.40
2018-02-09T10:37:09.340Z,5.30
2018-02-09T10:39:36.901Z,5.10
2018-02-09T10:42:04.472Z,5.20
2018-02-09T10:44:32.037Z,5.10
2018-02-09T10:47:00.604Z,4.70
2018-02-09T10:49:28.177Z,4.70
2018-02-09T10:51:55.835Z,4.60
2018-02-09T10:54:23.388Z,4.20
2018-02-09T10:56:50.940Z,3.60
2018-02-09T10:59:18.518Z,3.20
2018-02-09T11:01:46.078Z,3.20
2018-02-09T11:04:13.761Z,3.10
2018-02-09T11:06:41.437Z,3.20
2018-02-09T11:09:09.010Z,3.00
2018-02-09T11:11:36.565Z,3.10
2018-02-09T11:14:04.185Z,3.30
2018-02-09T11:16:31.769Z,3.10
2018-02-09T11:18:59.336Z,2.90
2018-02-09T11:21:26.985Z,3.00
2018-02-09T11:23:54.533Z,3.40
2018-02-09T11:26:23.157Z,3.50
2018-02-09T11:28:50.724Z,4.00
2018-02-09T11:31:18.318Z,3.80
2018-02-09T11:33:46.657Z,3.80
2018-02-09T11:36:14.230Z,3.80
2018-02-09T11:38:41.801Z,3.70
2018-02-09T11:41:10.393Z,3.50
2018-02-09T11:43:38.738Z,3.40
2018-02-09T11:46:06.333Z,3.30
2018-02-09T11:48:34.679Z,3.40
2018-02-09T11:51:02.258Z,3.30
2018-02-09T11:53:29.875Z,3.60
2018-02-09T11:55:57.474Z,3.80
2018-02-09T11:58:25.073Z,3.90
2018-02-09T12:00:53.485Z,4.00
2018-02-09T12:03:21.368Z,4.00
2018-02-09T12:05:50.778Z,4.00
2018-02-09T12:08:19.112Z,3.80
2018-02-09T12:10:46.695Z,3.80
2018-02-09T12:13:14.338Z,3.50
2018-02-09T12:15:41.925Z,3.10
2018-02-09T12:18:10.395Z,3.20
2018-02-09T12:20:37.966Z,3.20
2018-02-09T12:23:05.554Z,3.10
2018-02-09T12:25:33.302Z,3.10
2018-02-09T12:28:01.674Z,3.00
2018-02-09T12:30:30.061Z,3.00
2018-02-09T12:32:58.630Z,3.20
2018-02-09T12:35:26.271Z,3.10
2018-02-09T12:37:53.845Z,3.30
2018-02-09T12:40:21.391Z,3.50
2018-02-09T12:42:48.995Z,3.50
2018-02-09T12:45:17.313Z,3.60
2018-02-09T12:47:44.960Z,3.60
2018-02-09T12:50:12.805Z,3.50
2018-02-09T12:52:41.152Z,3.20
2018-02-09T12:55:09.422Z,3.20
2018-02-09T12:57:37.833Z,3.20
2018-02-09T13:00:05.416Z,3.10
2018-02-09T13:02:33.759Z,3.10
2018-02-09T13:05:01.303Z,3.10
2018-02-09T13:07:28.914Z,3.20
2018-02-09T13:09:57.241Z,3.10
2018-02-09T13:12:49.529Z,3.00
2018-02-09T13:15:17.917Z,3.00
2018-02-09T13:17:46.384Z,3.00
2018-02-09T13:20:16.305Z,3.10
2018-02-09T13:22:55.797Z,3.10
2018-02-09T13:25:33.756Z,3.00
2018-02-09T13:28:01.401Z,2.80
2018-02-09T13:30:28.966Z,2.60
2018-02-09T13:33:08.442Z,2.40
2018-02-09T13:35:36.074Z,2.30
2018-02-09T13:38:03.622Z,2.50
2018-02-09T13:40:31.214Z,2.80
2018-02-09T13:42:58.806Z,2.90
2018-02-09T13:45:26.426Z,2.90
2018-02-09T13:47:53.964Z,2.70
2018-02-09T13:50:21.602Z,2.50
2018-02-09T13:52:49.958Z,2.50
2018-02-09T13:55:18.528Z,2.60
2018-02-09T13:57:46.258Z,2.60
2018-02-09T14:00:13.824Z,2.90
2018-02-09T14:02:41.400Z,3.10
2018-02-09T14:05:09.863Z,3.10
2018-02-09T14:07:37.514Z,3.30
2018-02-09T14:10:05.954Z,3.20
2018-02-09T14:12:43.432Z,3.20
2018-02-09T14:15:11.213Z,3.20
2018-02-09T14:17:38.803Z,3.20
2018-02-09T14:20:06.349Z,3.30
2018-02-09T14:22:33.902Z,3.20
2018-02-09T14:25:01.505Z,3.30
2018-02-09T14:27:29.844Z,3.30
2018-02-09T14:29:57.683Z,3.30
2018-02-09T14:32:25.228Z,3.30
2018-02-09T14:34:52.833Z,3.20
2018-02-09T14:37:20.412Z,2.90
2018-02-09T14:39:47.987Z,2.70
2018-02-09T14:42:15.610Z,2.60
2018-02-09T14:44:43.182Z,2.50
2018-02-09T14:47:10.734Z,2.50
2018-02-09T14:49:38.372Z,2.50
2018-02-09T14:52:06.962Z,2.60
2018-02-09T14:54:34.513Z,2.70
2018-02-09T14:57:02.099Z,2.80
2018-02-09T14:59:29.752Z,2.80
2018-02-09T15:01:57.320Z,2.60
2018-02-09T15:04:24.923Z,2.60
2018-02-09T15:06:53.241Z,2.50
2018-02-09T15:09:20.815Z,2.50
2018-02-09T15:11:48.394Z,2.50
2018-02-09T15:14:15.969Z,2.40
2018-02-09T15:16:43.579Z,2.40
2018-02-09T15:19:11.918Z,2.20
2018-02-09T15:21:39.464Z,2.20
2018-02-09T15:24:07.046Z,2.10
2018-02-09T15:26:34.656Z,2.00
2018-02-09T15:29:02.273Z,1.90
2018-02-09T15:31:29.915Z,1.80
2018-02-09T15:33:57.495Z,1.80
2018-02-09T15:36:25.062Z,1.60
2018-02-09T15:38:52.629Z,1.50
2018-02-09T15:41:20.192Z,1.40
2018-02-09T15:43:47.845Z,1.40
2018-02-09T15:46:15.539Z,1.30
2018-02-09T15:48:43.953Z,1.20
2018-02-09T15:51:11.538Z,1.20
2018-02-09T15:53:39.141Z,1.20
2018-02-09T15:56:07.589Z,1.10
2018-02-09T15:58:35.179Z,1.10
2018-02-09T16:01:03.518Z,1.20
2018-02-09T16:03:31.081Z,1.10
2018-02-09T16:05:58.677Z,1.20
2018-02-09T16:08:26.252Z,1.10
2018-02-09T16:10:54.597Z,1.10
2018-02-09T16:13:22.226Z,1.10
2018-02-09T16:15:49.822Z,1.10
2018-02-09T16:18:17.441Z,1.00
2018-02-09T16:20:45.316Z,1.00
2018-02-09T16:23:12.879Z,0.90
2018-02-09T16:25:40.457Z,0.80
2018-02-09T16:28:08.056Z,0.80
2018-02-09T16:30:35.645Z,0.80
2018-02-09T16:33:03.198Z,0.70
2018-02-09T16:35:30.784Z,0.70
2018-02-09T16:37:58.340Z,0.60
2018-02-09T16:40:26.004Z,0.60
2018-02-09T16:42:53.577Z,0.50
2018-02-09T16:45:21.186Z,0.50
2018-02-09T16:47:48.849Z,0.50
2018-02-09T16:50:17.225Z,0.40
2018-02-09T16:52:44.910Z,0.40
2018-02-09T16:55:13.233Z,0.60
2018-02-09T16:57:40.811Z,0.60
2018-02-09T17:00:08.408Z,0.80
2018-02-09T17:02:36.040Z,0.90
2018-02-09T17:05:03.819Z,0.90
2018-02-09T17:07:31.386Z,1.00
2018-02-09T17:09:59.761Z,1.20
2018-02-09T17:12:27.309Z,1.20
2018-02-09T17:14:54.877Z,1.30
2018-02-09T17:17:22.444Z,1.30
2018-02-09T17:19:50.070Z,1.30
2018-02-09T17:22:17.638Z,1.40
2018-02-09T17:24:45.260Z,1.40
2018-02-09T17:27:13.564Z,1.40
2018-02-09T17:29:41.180Z,1.40
2018-02-09T17:32:09.560Z,1.40
2018-02-09T17:34:37.114Z,1.40
2018-02-09T17:37:04.739Z,1.50
2018-02-09T17:39:32.315Z,1.50
2018-02-09T17:41:59.894Z,1.50
2018-02-09T17:44:27.469Z,1.50
2018-02-09T17:46:55.074Z,1.50
2018-02-09T17:49:23.393Z,1.50
2018-02-09T17:51:51.733Z,1.50
2018-02-09T17:54:19.335Z,1.50
2018-02-09T17:56:46.911Z,1.50
2018-02-09T17:59:14.515Z,1.50
2018-02-09T18:01:42.085Z,1.50
2018-02-09T18:04:09.757Z,1.60
2018-02-09T18:06:37.317Z,1.50
2018-02-09T18:09:05.050Z,1.50
2018-02-09T18:11:32.598Z,1.60
2018-02-09T18:14:00.930Z,1.60
2018-02-09T18:16:28.561Z,1.50
2018-02-09T18:18:56.121Z,1.60
2018-02-09T18:21:23.709Z,1.60
2018-02-09T18:23:51.303Z,1.60
2018-02-09T18:26:18.890Z,1.60
2018-02-09T18:28:46.443Z,1.60
2018-02-09T18:31:14.877Z,1.60
2018-02-09T18:33:42.511Z,1.60
2018-02-09T18:36:11.035Z,1.60
2018-02-09T18:38:38.609Z,1.60
2018-02-09T18:41:06.219Z,1.60
2018-02-09T18:43:33.837Z,1.60
2018-02-09T18:46:01.450Z,1.60
2018-02-09T18:48:29.042Z,1.60
2018-02-09T18:50:56.716Z,1.60
2018-02-09T18:53:24.402Z,1.60
2018-02-09T18:55:52.072Z,1.60
2018-02-09T18:58:20.484Z,1.60
2018-02-09T19:00:48.111Z,1.60
2018-02-09T19:03:16.449Z,1.60
2018-02-09T19:05:44.014Z,1.60
2018-02-09T19:08:11.628Z,1.60
2018-02-09T19:10:39.306Z,1.60
2018-02-09T19:13:07.615Z,1.60
2018-02-09T19:15:35.163Z,1.60
2018-02-09T19:18:02.888Z,1.70
2018-02-09T19:20:30.577Z,1.70
2018-02-09T19:22:58.162Z,1.60
2018-02-09T19:25:25.793Z,1.60
2018-02-09T19:27:53.393Z,1.60
2018-02-09T19:30:21.105Z,1.60
2018-02-09T19:32:48.695Z,1.60
2018-02-09T19:35:16.359Z,1.70
2018-02-09T19:37:43.941Z,1.70
2018-02-09T19:40:11.510Z,1.70
2018-02-09T19:42:39.129Z,1.70
2018-02-09T19:45:06.961Z,1.70
2018-02-09T19:47:35.302Z,1.70
2018-02-09T19:50:02.910Z,1.70
2018-02-09T19:52:30.614Z,1.70
2018-02-09T19:54:58.205Z,1.70
2018-02-09T19:57:25.778Z,1.70
2018-02-09T19:59:53.521Z,1.70
2018-02-09T20:02:21.247Z,1.70
2018-02-09T20:04:49.578Z,1.70
2018-02-09T20:07:17.169Z,1.70
2018-02-09T20:09:44.724Z,1.70
2018-02-09T20:12:12.363Z,1.70
2018-02-09T20:14:39.953Z,1.70
2018-02-09T20:17:07.517Z,1.80
2018-02-09T20:19:35.858Z,1.80
2018-02-09T20:22:03.626Z,1.70
2018-02-09T20:24:31.225Z,1.80
2018-02-09T20:26:59.609Z,1.80
2018-02-09T20:29:27.955Z,1.80
2018-02-09T20:31:55.642Z,1.80
2018-02-09T20:34:23.189Z,1.80
2018-02-09T20:36:50.777Z,1.80
2018-02-09T20:39:19.161Z,1.80
2018-02-09T20:41:47.518Z,1.80
2018-02-09T20:44:15.108Z,1.70
2018-02-09T20:46:43.685Z,1.70
2018-02-09T20:49:12.127Z,1.70
2018-02-09T20:51:39.907Z,1.70
2018-02-09T20:54:07.558Z,1.70
2018-02-09T20:56:35.410Z,1.70
2018-02-09T20:59:03.033Z,1.80
2018-02-09T21:01:31.366Z,1.80
2018-02-09T21:03:59.035Z,1.80
2018-02-09T21:06:26.921Z,1.70
2018-02-09T21:08:55.641Z,1.80
2018-02-09T21:11:24.154Z,1.80
2018-02-09T21:13:52.071Z,1.80
2018-02-09T21:16:21.697Z,1.90
2018-02-09T21:18:50.120Z,1.80
2018-02-09T21:21:18.020Z,1.80
2018-02-09T21:23:45.708Z,1.80
2018-02-09T21:26:13.468Z,1.80
2018-02-09T21:28:41.871Z,1.80
2018-02-09T21:31:09.643Z,1.70
2018-02-09T21:33:37.234Z,1.70
2018-02-09T21:36:06.047Z,1.80
2018-02-09T21:38:33.787Z,1.80
2018-02-09T21:41:01.562Z,1.80
2018-02-09T21:43:29.367Z,1.70
2018-02-09T21:45:57.053Z,1.70
2018-02-09T21:48:24.848Z,1.80
2018-02-09T21:50:52.554Z,1.80
2018-02-09T21:53:21.062Z,1.80
2018-02-09T21:55:48.780Z,1.80
2018-02-09T21:58:17.246Z,1.80
2018-02-09T22:00:45.717Z,1.80
2018-02-09T22:03:13.326Z,1.80
2018-02-09T22:05:41.875Z,1.90
2018-02-09T22:08:09.866Z,1.90
2018-02-09T22:10:37.523Z,1.90
2018-02-09T22:13:05.955Z,1.80
2018-02-09T22:15:33.506Z,1.80
2018-02-09T22:18:01.197Z,1.80
2018-02-09T22:20:28.769Z,1.80
2018-02-09T22:22:56.375Z,1.80
2018-02-09T22:25:24.700Z,1.90
2018-02-09T22:27:52.368Z,1.90
2018-02-09T22:30:19.925Z,1.90
2018-02-09T22:32:47.521Z,1.90
2018-02-09T22:35:15.889Z,1.90
2018-02-09T22:37:43.524Z,1.90
2018-02-09T22:40:11.375Z,1.90
2018-02-09T22:42:38.979Z,1.90
2018-02-09T22:45:06.545Z,1.90
2018-02-09T22:47:34.101Z,1.90
2018-02-09T22:50:01.687Z,1.90
2018-02-09T22:52:29.239Z,1.90
2018-02-09T22:54:56.826Z,2.00
2018-02-09T22:57:25.290Z,2.00
2018-02-09T22:59:52.843Z,1.90
2018-02-09T23:02:20.452Z,2.00
2018-02-09T23:04:48.039Z,2.00
2018-02-09T23:07:15.797Z,2.00
2018-02-09T23:09:43.361Z,2.00
2018-02-09T23:12:11.159Z,2.00
2018-02-09T23:14:38.725Z,2.00
2018-02-09T23:17:07.087Z,2.00
2018-02-09T23:19:34.772Z,1.90
2018-02-09T23:22:03.112Z,2.00
2018-02-09T23:24:30.706Z,2.00
2018-02-09T23:26:58.280Z,2.00
2018-02-09T23:29:26.645Z,2.00
2018-02-09T23:31:54.367Z,2.00
2018-02-09T23:34:22.555Z,2.00
2018-02-09T23:36:50.189Z,2.00
2018-02-09T23:39:17.784Z,2.10
2018-02-09T23:41:45.362Z,2.10
2018-02-09T23:44:12.923Z,2.10
2018-02-09T23:46:40.520Z,2.20
2018-02-09T23:49:08.845Z,2.20
2018-02-09T23:51:36.431Z,2.20
2018-02-09T23:54:04.107Z,2.30
2018-02-09T23:56:32.478Z,2.20
2018-02-09T23:59:00.048Z,2.20
